Ncc Najd — HZAK — position and weather

sailwx.info

Track history (hours):
 
Tides and Currents Weather Stations Pressure Air Temp Water Temp Dewpoint Dewpoint Depression Visibility Wind Speed Wind Dir Waves Ship Positions

Ncc Najd

Last reported at 2015-Sep-04 20:29 UTC. Time now 2015-Sep-04 21:06 UTC.
Position N 31°34' E 121°20'.

Length 183 m; draft 8 m.

Type: Ship (hazmat cat B). MMSI: 403579000.

Date/timePositionNaut miles runAvg speedWind from/ knotsBaromVisibWave heightAir tempDewpointWater temp
2015-Sep-04 20:29N 31°34' E 121°20'0 0.0
2015-Sep-04 19:32N 31°34' E 121°20'0 0.1
2015-Sep-04 18:32N 31°34' E 121°20'0 0.1
2015-Sep-04 17:32N 31°34' E 121°20'0 0.0
2015-Sep-04 16:32N 31°34' E 121°20'0 0.1
2015-Sep-04 15:32N 31°34' E 121°20'0 0.0
2015-Sep-04 14:32N 31°34' E 121°20'0 0.1
2015-Sep-04 13:32N 31°34' E 121°20'0 0.1
2015-Sep-04 12:32N 31°34' E 121°20'0 0.2
2015-Sep-04 11:32N 31°34' E 121°20'1 1.4
2015-Sep-04 10:33N 31°35' E 121°18'0 0.4
2015-Sep-04 09:33N 31°35' E 121°18'0 0.0
2015-Sep-04 08:27N 31°35' E 121°18'0 0.0
2015-Sep-04 07:17N 31°35' E 121°18'0 0.0
2015-Sep-04 06:30N 31°35' E 121°18'0 0.0
2015-Sep-04 05:32N 31°35' E 121°18'0 0.0
2015-Sep-04 04:33N 31°35' E 121°18'0 0.0
2015-Sep-04 03:33N 31°35' E 121°18'0 0.0
2015-Sep-04 02:33N 31°35' E 121°18'1 0.6
2015-Sep-04 01:33N 31°35' E 121°17'0 0.0
2015-Sep-03 22:12N 31°35' E 121°17'0 0.0
2015-Sep-03 10:18N 31°35' E 121°17'0 0.0
2015-Sep-03 09:30N 31°35' E 121°17'0 0.0
2015-Sep-03 08:30N 31°35' E 121°17'0 0.0
2015-Sep-03 02:18N 31°35' E 121°17'0 0.0
2015-Sep-03 01:24N 31°35' E 121°17'0 0.0
2015-Sep-02 19:24N 31°35' E 121°17'0 0.0
2015-Sep-02 17:30N 31°35' E 121°17'0 0.0
2015-Sep-02 15:18N 31°35' E 121°17'0 0.0
2015-Sep-02 10:27N 31°35' E 121°17'0 0.0
2015-Sep-02 09:33N 31°35' E 121°17'9 9.0
2015-Sep-02 08:33N 31°30' E 121°26'10 9.6
2015-Sep-02 07:33N 31°24' E 121°34'9 8.8
2015-Sep-02 06:33N 31°19' E 121°43'9 9.5
2015-Sep-02 05:33N 31°16' E 121°54'1212.2
2015-Sep-02 04:33N 31°13' E 122°07'1212.0
2015-Sep-02 03:33N 31°06' E 122°19'1110.6
2015-Sep-02 02:29N 31°06' E 122°33'5 4.2
2015-Sep-02 01:17N 31°10' E 122°36'0 0.1
2015-Sep-02 00:17N 31°11' E 122°36'0 0.1
2015-Sep-01 23:32N 31°11' E 122°36'0 0.0
2015-Sep-01 22:26N 31°11' E 122°36'0 0.0
2015-Sep-01 21:33N 31°11' E 122°36'0 0.1
2015-Sep-01 20:32N 31°11' E 122°36'0 0.1
2015-Sep-01 19:33N 31°11' E 122°36'0 0.0
2015-Sep-01 18:33N 31°11' E 122°36'0 0.1
2015-Sep-01 17:17N 31°11' E 122°36'0 0.1
2015-Sep-01 16:26N 31°11' E 122°36'2 1.9
2015-Sep-01 15:33N 31°11' E 122°38'1313.0
2015-Sep-01 14:33N 31°06' E 122°52'1616.3
2015-Sep-01 13:34N 31°02' E 123°10'1614.5
2015-Sep-01 12:26N 30°47' E 123°19'1314.7
2015-Sep-01 11:33N 30°35' E 123°20'1514.5
2015-Sep-01 10:31N 30°20' E 123°19'5914.0
2015-Sep-01 06:19N 29°43' E 122°25'2411.6
2015-Sep-01 04:14N 29°55' E 122°01'8 9.8
2015-Sep-01 03:26N 29°57' E 121°52'4 0.2
2015-Aug-31 09:31N 29°59' E 121°48'11 8.1
2015-Aug-31 08:10N 29°57' E 122°00'9 9.9
2015-Aug-31 07:18N 29°55' E 122°10'10 9.6
2015-Aug-31 06:18N 29°47' E 122°17'10 8.7
2015-Aug-31 05:07N 29°44' E 122°28'358 8.6
2015-Aug-29 11:30N 24°34' E 119°08'3314.9
2015-Aug-29 09:18N 24°15' E 118°38'1114.1
2015-Aug-29 08:33N 24°10' E 118°28'1313.0
2015-Aug-29 07:32N 24°13' E 118°14'1211.9
2015-Aug-29 06:34N 24°23' E 118°07'6 0.7
2015-Aug-28 22:22N 24°27' E 118°03'0 0.0
2015-Aug-28 21:28N 24°27' E 118°03'0 0.0
2015-Aug-28 20:16N 24°27' E 118°03'0 0.0
2015-Aug-28 19:28N 24°27' E 118°03'0 0.0
2015-Aug-28 18:28N 24°27' E 118°03'0 0.0
2015-Aug-28 16:04N 24°27' E 118°03'0 0.0
2015-Aug-28 13:16N 24°27' E 118°03'0 0.0
2015-Aug-28 11:04N 24°27' E 118°03'0 0.0
2015-Aug-28 10:28N 24°27' E 118°03'0 0.0
2015-Aug-28 09:16N 24°27' E 118°03'0 0.0
2015-Aug-28 06:10N 24°27' E 118°03'0 0.0
2015-Aug-28 05:16N 24°27' E 118°03'0 0.0
2015-Aug-28 04:22N 24°27' E 118°03'1 0.4
2015-Aug-28 02:33N 24°26' E 118°03'9 8.4
2015-Aug-28 01:29N 24°21' E 118°10'2 0.5
2015-Aug-27 21:17N 24°20' E 118°13'0 0.1
2015-Aug-27 20:11N 24°20' E 118°13'0 0.1
2015-Aug-27 18:29N 24°20' E 118°12'0 0.0
2015-Aug-27 14:17N 24°20' E 118°12'0 0.0
2015-Aug-27 13:29N 24°20' E 118°12'0 0.0
2015-Aug-27 12:30N 24°21' E 118°12'0 0.1
2015-Aug-27 10:29N 24°21' E 118°12'0 0.1
2015-Aug-27 09:06N 24°20' E 118°13'1 1.5
2015-Aug-27 08:32N 24°20' E 118°12'6 6.3
2015-Aug-27 07:34N 24°14' E 118°13'1211.7
2015-Aug-27 06:33N 24°05' E 118°22'27611.9
2015-Aug-26 07:26N 22°07' E 113°51'1011.5
2015-Aug-26 06:33N 22°16' E 113°48'1312.2
2015-Aug-26 05:31N 22°29' E 113°45'1512.7
2015-Aug-26 04:20N 22°43' E 113°40'911.0
2015-Aug-26 03:33N 22°50' E 113°35'7 6.0
2015-Aug-26 02:23N 22°57' E 113°33'0 0.0
2015-Aug-26 01:29N 22°57' E 113°33'0 0.0
2015-Aug-25 23:29N 22°57' E 113°33'0 0.0
2015-Aug-25 22:11N 22°57' E 113°33'0 0.0
2015-Aug-25 21:23N 22°57' E 113°33'  
Track history (hours):
 
Tides and Currents Weather Stations Pressure Air Temp Water Temp Dewpoint Dewpoint Depression Visibility Wind Speed Wind Dir Waves Ship Positions

Ncc Najd

Last reported at 2015-Sep-04 20:29 UTC. Time now 2015-Sep-04 21:07 UTC.
Position N 31°34' E 121°20'.

Length 183 m; draft 8 m.

Type: Ship (hazmat cat B). MMSI: 403579000.

Date/timePositionNaut miles runAvg speedWind from/ knotsBaromVisibWave heightAir tempDewpointWater temp
2015-Sep-04 20:29N 31°34' E 121°20'0 0.0
2015-Sep-04 19:32N 31°34' E 121°20'0 0.1
2015-Sep-04 18:32N 31°34' E 121°20'0 0.1
2015-Sep-04 17:32N 31°34' E 121°20'0 0.0
2015-Sep-04 16:32N 31°34' E 121°20'0 0.1
2015-Sep-04 15:32N 31°34' E 121°20'0 0.0
2015-Sep-04 14:32N 31°34' E 121°20'0 0.1
2015-Sep-04 13:32N 31°34' E 121°20'0 0.1
2015-Sep-04 12:32N 31°34' E 121°20'0 0.2
2015-Sep-04 11:32N 31°34' E 121°20'1 1.4
2015-Sep-04 10:33N 31°35' E 121°18'0 0.4
2015-Sep-04 09:33N 31°35' E 121°18'0 0.0
2015-Sep-04 08:27N 31°35' E 121°18'0 0.0
2015-Sep-04 07:17N 31°35' E 121°18'0 0.0
2015-Sep-04 06:30N 31°35' E 121°18'0 0.0
2015-Sep-04 05:32N 31°35' E 121°18'0 0.0
2015-Sep-04 04:33N 31°35' E 121°18'0 0.0
2015-Sep-04 03:33N 31°35' E 121°18'0 0.0
2015-Sep-04 02:33N 31°35' E 121°18'1 0.6
2015-Sep-04 01:33N 31°35' E 121°17'0 0.0
2015-Sep-03 22:12N 31°35' E 121°17'0 0.0
2015-Sep-03 10:18N 31°35' E 121°17'0 0.0
2015-Sep-03 09:30N 31°35' E 121°17'0 0.0
2015-Sep-03 08:30N 31°35' E 121°17'0 0.0
2015-Sep-03 02:18N 31°35' E 121°17'0 0.0
2015-Sep-03 01:24N 31°35' E 121°17'0 0.0
2015-Sep-02 19:24N 31°35' E 121°17'0 0.0
2015-Sep-02 17:30N 31°35' E 121°17'0 0.0
2015-Sep-02 15:18N 31°35' E 121°17'0 0.0
2015-Sep-02 10:27N 31°35' E 121°17'0 0.0
2015-Sep-02 09:33N 31°35' E 121°17'9 9.0
2015-Sep-02 08:33N 31°30' E 121°26'10 9.6
2015-Sep-02 07:33N 31°24' E 121°34'9 8.8
2015-Sep-02 06:33N 31°19' E 121°43'9 9.5
2015-Sep-02 05:33N 31°16' E 121°54'1212.2
2015-Sep-02 04:33N 31°13' E 122°07'1212.0
2015-Sep-02 03:33N 31°06' E 122°19'1110.6
2015-Sep-02 02:29N 31°06' E 122°33'5 4.2
2015-Sep-02 01:17N 31°10' E 122°36'0 0.1
2015-Sep-02 00:17N 31°11' E 122°36'0 0.1
2015-Sep-01 23:32N 31°11' E 122°36'0 0.0
2015-Sep-01 22:26N 31°11' E 122°36'0 0.0
2015-Sep-01 21:33N 31°11' E 122°36'0 0.1
2015-Sep-01 20:32N 31°11' E 122°36'0 0.1
2015-Sep-01 19:33N 31°11' E 122°36'0 0.0
2015-Sep-01 18:33N 31°11' E 122°36'0 0.1
2015-Sep-01 17:17N 31°11' E 122°36'0 0.1
2015-Sep-01 16:26N 31°11' E 122°36'2 1.9
2015-Sep-01 15:33N 31°11' E 122°38'1313.0
2015-Sep-01 14:33N 31°06' E 122°52'1616.3
2015-Sep-01 13:34N 31°02' E 123°10'1614.5
2015-Sep-01 12:26N 30°47' E 123°19'1314.7
2015-Sep-01 11:33N 30°35' E 123°20'1514.5
2015-Sep-01 10:31N 30°20' E 123°19'5914.0
2015-Sep-01 06:19N 29°43' E 122°25'2411.6
2015-Sep-01 04:14N 29°55' E 122°01'8 9.8
2015-Sep-01 03:26N 29°57' E 121°52'4 0.2
2015-Aug-31 09:31N 29°59' E 121°48'11 8.1
2015-Aug-31 08:10N 29°57' E 122°00'9 9.9
2015-Aug-31 07:18N 29°55' E 122°10'10 9.6
2015-Aug-31 06:18N 29°47' E 122°17'10 8.7
2015-Aug-31 05:07N 29°44' E 122°28'358 8.6
2015-Aug-29 11:30N 24°34' E 119°08'3314.9
2015-Aug-29 09:18N 24°15' E 118°38'1114.1
2015-Aug-29 08:33N 24°10' E 118°28'1313.0
2015-Aug-29 07:32N 24°13' E 118°14'1211.9
2015-Aug-29 06:34N 24°23' E 118°07'6 0.7
2015-Aug-28 22:22N 24°27' E 118°03'0 0.0
2015-Aug-28 21:28N 24°27' E 118°03'0 0.0
2015-Aug-28 20:16N 24°27' E 118°03'0 0.0
2015-Aug-28 19:28N 24°27' E 118°03'0 0.0
2015-Aug-28 18:28N 24°27' E 118°03'0 0.0
2015-Aug-28 16:04N 24°27' E 118°03'0 0.0
2015-Aug-28 13:16N 24°27' E 118°03'0 0.0
2015-Aug-28 11:04N 24°27' E 118°03'0 0.0
2015-Aug-28 10:28N 24°27' E 118°03'0 0.0
2015-Aug-28 09:16N 24°27' E 118°03'0 0.0
2015-Aug-28 06:10N 24°27' E 118°03'0 0.0
2015-Aug-28 05:16N 24°27' E 118°03'0 0.0
2015-Aug-28 04:22N 24°27' E 118°03'1 0.4
2015-Aug-28 02:33N 24°26' E 118°03'9 8.4
2015-Aug-28 01:29N 24°21' E 118°10'2 0.5
2015-Aug-27 21:17N 24°20' E 118°13'0 0.1
2015-Aug-27 20:11N 24°20' E 118°13'0 0.1
2015-Aug-27 18:29N 24°20' E 118°12'0 0.0
2015-Aug-27 14:17N 24°20' E 118°12'0 0.0
2015-Aug-27 13:29N 24°20' E 118°12'0 0.0
2015-Aug-27 12:30N 24°21' E 118°12'0 0.1
2015-Aug-27 10:29N 24°21' E 118°12'0 0.1
2015-Aug-27 09:06N 24°20' E 118°13'1 1.5
2015-Aug-27 08:32N 24°20' E 118°12'6 6.3
2015-Aug-27 07:34N 24°14' E 118°13'1211.7
2015-Aug-27 06:33N 24°05' E 118°22'27611.9
2015-Aug-26 07:26N 22°07' E 113°51'1011.5
2015-Aug-26 06:33N 22°16' E 113°48'1312.2
2015-Aug-26 05:31N 22°29' E 113°45'1512.7
2015-Aug-26 04:20N 22°43' E 113°40'911.0
2015-Aug-26 03:33N 22°50' E 113°35'7 6.0
2015-Aug-26 02:23N 22°57' E 113°33'0 0.0
2015-Aug-26 01:29N 22°57' E 113°33'0 0.0
2015-Aug-25 23:29N 22°57' E 113°33'0 0.0
2015-Aug-25 22:11N 22°57' E 113°33'0 0.0
2015-Aug-25 21:23N 22°57' E 113°33'  

Dump ship's entire track history